sensor_id;sensor_type;location;lat;lon;timestamp;P1;durP1;ratioP1;P2;durP2;ratioP2
79438;SDS011;68889;48.232;10.110;2023-05-10T00:01:48;1.80;;;1.20;;
79438;SDS011;68889;48.232;10.110;2023-05-10T00:04:14;1.80;;;1.30;;
79438;SDS011;68889;48.232;10.110;2023-05-10T00:06:39;1.90;;;1.30;;
79438;SDS011;68889;48.232;10.110;2023-05-10T00:09:05;3.67;;;1.40;;
79438;SDS011;68889;48.232;10.110;2023-05-10T00:11:30;2.35;;;1.38;;
79438;SDS011;68889;48.232;10.110;2023-05-10T00:13:56;2.17;;;1.33;;
79438;SDS011;68889;48.232;10.110;2023-05-10T00:16:21;2.05;;;1.10;;
79438;SDS011;68889;48.232;10.110;2023-05-10T00:18:47;3.45;;;1.98;;
79438;SDS011;68889;48.232;10.110;2023-05-10T00:21:12;1.80;;;1.15;;
79438;SDS011;68889;48.232;10.110;2023-05-10T00:23:38;3.10;;;1.20;;
79438;SDS011;68889;48.232;10.110;2023-05-10T00:26:03;1.75;;;1.23;;
79438;SDS011;68889;48.232;10.110;2023-05-10T00:28:29;2.15;;;1.15;;
79438;SDS011;68889;48.232;10.110;2023-05-10T00:30:55;1.63;;;1.10;;
79438;SDS011;68889;48.232;10.110;2023-05-10T00:33:20;2.25;;;1.20;;
79438;SDS011;68889;48.232;10.110;2023-05-10T00:35:46;1.40;;;1.00;;
79438;SDS011;68889;48.232;10.110;2023-05-10T00:38:11;1.52;;;1.17;;
79438;SDS011;68889;48.232;10.110;2023-05-10T00:40:37;1.90;;;1.40;;
79438;SDS011;68889;48.232;10.110;2023-05-10T00:43:03;2.50;;;1.30;;
79438;SDS011;68889;48.232;10.110;2023-05-10T00:45:29;2.00;;;1.10;;
79438;SDS011;68889;48.232;10.110;2023-05-10T00:47:57;1.33;;;1.00;;
79438;SDS011;68889;48.232;10.110;2023-05-10T00:50:24;1.35;;;0.85;;
79438;SDS011;68889;48.232;10.110;2023-05-10T00:52:50;1.88;;;1.05;;
79438;SDS011;68889;48.232;10.110;2023-05-10T00:55:16;1.60;;;1.00;;
79438;SDS011;68889;48.232;10.110;2023-05-10T00:57:43;1.27;;;0.90;;
79438;SDS011;68889;48.232;10.110;2023-05-10T01:00:08;1.95;;;0.90;;
79438;SDS011;68889;48.232;10.110;2023-05-10T01:02:36;1.17;;;0.80;;
79438;SDS011;68889;48.232;10.110;2023-05-10T01:05:02;1.60;;;0.70;;
79438;SDS011;68889;48.232;10.110;2023-05-10T01:07:31;1.15;;;0.82;;
79438;SDS011;68889;48.232;10.110;2023-05-10T01:09:56;1.40;;;0.90;;
79438;SDS011;68889;48.232;10.110;2023-05-10T01:12:22;1.35;;;0.82;;
79438;SDS011;68889;48.232;10.110;2023-05-10T01:14:48;1.02;;;0.70;;
79438;SDS011;68889;48.232;10.110;2023-05-10T01:17:14;1.90;;;0.90;;
79438;SDS011;68889;48.232;10.110;2023-05-10T01:19:41;1.42;;;0.77;;
79438;SDS011;68889;48.232;10.110;2023-05-10T01:22:17;1.33;;;0.50;;
79438;SDS011;68889;48.232;10.110;2023-05-10T01:27:56;0.90;;;0.60;;
79438;SDS011;68889;48.232;10.110;2023-05-10T01:36:14;0.85;;;0.50;;
79438;SDS011;68889;48.232;10.110;2023-05-10T01:38:51;0.75;;;0.40;;
79438;SDS011;68889;48.232;10.110;2023-05-10T01:44:06;1.52;;;0.40;;
79438;SDS011;68889;48.232;10.110;2023-05-10T01:46:41;1.52;;;0.40;;
79438;SDS011;68889;48.232;10.110;2023-05-10T01:49:41;0.60;;;0.30;;
79438;SDS011;68889;48.232;10.110;2023-05-10T01:52:08;0.90;;;0.30;;
79438;SDS011;68889;48.232;10.110;2023-05-10T01:54:38;1.65;;;0.45;;
79438;SDS011;68889;48.232;10.110;2023-05-10T01:57:42;0.52;;;0.40;;
79438;SDS011;68889;48.232;10.110;2023-05-10T02:00:11;0.82;;;0.32;;
79438;SDS011;68889;48.232;10.110;2023-05-10T02:02:39;0.40;;;0.30;;
79438;SDS011;68889;48.232;10.110;2023-05-10T02:05:07;0.60;;;0.30;;
79438;SDS011;68889;48.232;10.110;2023-05-10T02:07:35;0.45;;;0.30;;
79438;SDS011;68889;48.232;10.110;2023-05-10T02:10:05;0.60;;;0.32;;
79438;SDS011;68889;48.232;10.110;2023-05-10T02:12:36;0.30;;;0.20;;
79438;SDS011;68889;48.232;10.110;2023-05-10T02:17:32;0.60;;;0.40;;
79438;SDS011;68889;48.232;10.110;2023-05-10T02:19:59;0.65;;;0.50;;
79438;SDS011;68889;48.232;10.110;2023-05-10T02:22:27;0.45;;;0.25;;
79438;SDS011;68889;48.232;10.110;2023-05-10T02:24:53;0.50;;;0.30;;
79438;SDS011;68889;48.232;10.110;2023-05-10T02:27:22;0.60;;;0.40;;
79438;SDS011;68889;48.232;10.110;2023-05-10T02:29:50;1.23;;;0.40;;
79438;SDS011;68889;48.232;10.110;2023-05-10T02:32:17;0.85;;;0.50;;
79438;SDS011;68889;48.232;10.110;2023-05-10T02:34:43;1.10;;;0.68;;
79438;SDS011;68889;48.232;10.110;2023-05-10T02:37:12;0.80;;;0.20;;
79438;SDS011;68889;48.232;10.110;2023-05-10T02:39:39;1.10;;;0.30;;
79438;SDS011;68889;48.232;10.110;2023-05-10T02:42:10;1.15;;;0.40;;
79438;SDS011;68889;48.232;10.110;2023-05-10T02:44:40;1.85;;;0.52;;
79438;SDS011;68889;48.232;10.110;2023-05-10T02:47:07;1.17;;;0.50;;
79438;SDS011;68889;48.232;10.110;2023-05-10T02:49:33;0.77;;;0.50;;
79438;SDS011;68889;48.232;10.110;2023-05-10T02:52:00;0.73;;;0.43;;
79438;SDS011;68889;48.232;10.110;2023-05-10T02:54:30;0.90;;;0.50;;
79438;SDS011;68889;48.232;10.110;2023-05-10T02:57:00;0.93;;;0.40;;
79438;SDS011;68889;48.232;10.110;2023-05-10T02:59:28;0.65;;;0.40;;
79438;SDS011;68889;48.232;10.110;2023-05-10T03:01:54;0.98;;;0.32;;
79438;SDS011;68889;48.232;10.110;2023-05-10T03:04:19;0.70;;;0.40;;
79438;SDS011;68889;48.232;10.110;2023-05-10T03:06:45;0.65;;;0.40;;
79438;SDS011;68889;48.232;10.110;2023-05-10T03:09:11;0.65;;;0.40;;
79438;SDS011;68889;48.232;10.110;2023-05-10T03:11:45;0.82;;;0.35;;
79438;SDS011;68889;48.232;10.110;2023-05-10T03:17:23;1.08;;;0.50;;
79438;SDS011;68889;48.232;10.110;2023-05-10T03:20:03;1.77;;;0.50;;
79438;SDS011;68889;48.232;10.110;2023-05-10T03:22:47;0.98;;;0.40;;
79438;SDS011;68889;48.232;10.110;2023-05-10T03:25:18;0.95;;;0.32;;
79438;SDS011;68889;48.232;10.110;2023-05-10T03:27:45;0.40;;;0.30;;
79438;SDS011;68889;48.232;10.110;2023-05-10T03:30:12;0.82;;;0.30;;
79438;SDS011;68889;48.232;10.110;2023-05-10T03:32:39;1.55;;;0.40;;
79438;SDS011;68889;48.232;10.110;2023-05-10T03:35:08;1.13;;;0.30;;
79438;SDS011;68889;48.232;10.110;2023-05-10T03:37:34;1.33;;;0.30;;
79438;SDS011;68889;48.232;10.110;2023-05-10T03:40:00;0.63;;;0.40;;
79438;SDS011;68889;48.232;10.110;2023-05-10T03:42:26;0.70;;;0.40;;
79438;SDS011;68889;48.232;10.110;2023-05-10T03:44:52;0.73;;;0.40;;
79438;SDS011;68889;48.232;10.110;2023-05-10T03:47:17;0.55;;;0.28;;
79438;SDS011;68889;48.232;10.110;2023-05-10T03:49:42;0.95;;;0.30;;
79438;SDS011;68889;48.232;10.110;2023-05-10T03:52:08;0.88;;;0.40;;
79438;SDS011;68889;48.232;10.110;2023-05-10T03:54:33;0.47;;;0.30;;
79438;SDS011;68889;48.232;10.110;2023-05-10T03:56:59;1.27;;;0.40;;
79438;SDS011;68889;48.232;10.110;2023-05-10T03:59:25;0.38;;;0.30;;
79438;SDS011;68889;48.232;10.110;2023-05-10T04:01:51;1.00;;;0.40;;
79438;SDS011;68889;48.232;10.110;2023-05-10T04:04:16;0.88;;;0.30;;
79438;SDS011;68889;48.232;10.110;2023-05-10T04:06:43;0.63;;;0.30;;
79438;SDS011;68889;48.232;10.110;2023-05-10T04:09:09;0.60;;;0.30;;
79438;SDS011;68889;48.232;10.110;2023-05-10T04:11:35;1.00;;;0.40;;
79438;SDS011;68889;48.232;10.110;2023-05-10T04:14:01;0.77;;;0.40;;
79438;SDS011;68889;48.232;10.110;2023-05-10T04:16:26;0.65;;;0.30;;
79438;SDS011;68889;48.232;10.110;2023-05-10T04:18:52;0.60;;;0.35;;
79438;SDS011;68889;48.232;10.110;2023-05-10T04:21:17;0.65;;;0.38;;
79438;SDS011;68889;48.232;10.110;2023-05-10T04:23:43;0.65;;;0.30;;
79438;SDS011;68889;48.232;10.110;2023-05-10T04:26:09;0.30;;;0.20;;
79438;SDS011;68889;48.232;10.110;2023-05-10T04:28:34;0.47;;;0.30;;
79438;SDS011;68889;48.232;10.110;2023-05-10T04:31:03;0.70;;;0.50;;
79438;SDS011;68889;48.232;10.110;2023-05-10T04:33:33;0.30;;;0.30;;
79438;SDS011;68889;48.232;10.110;2023-05-10T04:35:59;0.80;;;0.43;;
79438;SDS011;68889;48.232;10.110;2023-05-10T04:38:25;0.80;;;0.50;;
79438;SDS011;68889;48.232;10.110;2023-05-10T04:40:52;0.70;;;0.40;;
79438;SDS011;68889;48.232;10.110;2023-05-10T04:43:18;0.77;;;0.40;;
79438;SDS011;68889;48.232;10.110;2023-05-10T04:45:44;0.90;;;0.40;;
79438;SDS011;68889;48.232;10.110;2023-05-10T04:48:10;0.40;;;0.30;;
79438;SDS011;68889;48.232;10.110;2023-05-10T04:50:36;0.95;;;0.47;;
79438;SDS011;68889;48.232;10.110;2023-05-10T04:53:01;0.93;;;0.32;;
79438;SDS011;68889;48.232;10.110;2023-05-10T04:55:27;0.82;;;0.45;;
79438;SDS011;68889;48.232;10.110;2023-05-10T04:57:53;1.23;;;0.40;;
79438;SDS011;68889;48.232;10.110;2023-05-10T05:00:21;1.05;;;0.50;;
79438;SDS011;68889;48.232;10.110;2023-05-10T05:02:47;0.90;;;0.43;;
79438;SDS011;68889;48.232;10.110;2023-05-10T05:05:12;1.88;;;0.40;;
79438;SDS011;68889;48.232;10.110;2023-05-10T05:07:38;0.70;;;0.40;;
79438;SDS011;68889;48.232;10.110;2023-05-10T05:10:07;1.45;;;0.68;;
79438;SDS011;68889;48.232;10.110;2023-05-10T05:12:33;1.45;;;0.55;;
79438;SDS011;68889;48.232;10.110;2023-05-10T05:14:59;2.25;;;0.60;;
79438;SDS011;68889;48.232;10.110;2023-05-10T05:17:25;0.73;;;0.57;;
79438;SDS011;68889;48.232;10.110;2023-05-10T05:19:51;2.35;;;0.80;;
79438;SDS011;68889;48.232;10.110;2023-05-10T05:22:16;1.75;;;0.65;;
79438;SDS011;68889;48.232;10.110;2023-05-10T05:24:42;1.30;;;0.60;;
79438;SDS011;68889;48.232;10.110;2023-05-10T05:27:08;2.33;;;0.63;;
79438;SDS011;68889;48.232;10.110;2023-05-10T05:29:33;2.15;;;0.90;;
79438;SDS011;68889;48.232;10.110;2023-05-10T05:31:59;1.08;;;0.65;;
79438;SDS011;68889;48.232;10.110;2023-05-10T05:34:25;1.50;;;0.70;;
79438;SDS011;68889;48.232;10.110;2023-05-10T05:36:50;1.63;;;0.70;;
79438;SDS011;68889;48.232;10.110;2023-05-10T05:39:16;3.22;;;0.70;;
79438;SDS011;68889;48.232;10.110;2023-05-10T05:41:42;1.92;;;0.70;;
79438;SDS011;68889;48.232;10.110;2023-05-10T05:44:07;2.67;;;0.63;;
79438;SDS011;68889;48.232;10.110;2023-05-10T05:46:33;1.92;;;0.80;;
79438;SDS011;68889;48.232;10.110;2023-05-10T05:48:58;0.98;;;0.60;;
79438;SDS011;68889;48.232;10.110;2023-05-10T05:51:24;2.10;;;0.75;;
79438;SDS011;68889;48.232;10.110;2023-05-10T05:53:50;2.22;;;0.82;;
79438;SDS011;68889;48.232;10.110;2023-05-10T05:56:15;1.05;;;0.60;;
79438;SDS011;68889;48.232;10.110;2023-05-10T05:58:42;1.15;;;0.75;;
79438;SDS011;68889;48.232;10.110;2023-05-10T06:01:08;1.85;;;0.73;;
79438;SDS011;68889;48.232;10.110;2023-05-10T06:03:34;1.88;;;0.88;;
79438;SDS011;68889;48.232;10.110;2023-05-10T06:05:59;1.92;;;0.50;;
79438;SDS011;68889;48.232;10.110;2023-05-10T06:08:25;1.02;;;0.55;;
79438;SDS011;68889;48.232;10.110;2023-05-10T06:10:50;0.93;;;0.70;;
79438;SDS011;68889;48.232;10.110;2023-05-10T06:13:16;1.77;;;0.82;;
79438;SDS011;68889;48.232;10.110;2023-05-10T06:15:41;1.95;;;0.70;;
79438;SDS011;68889;48.232;10.110;2023-05-10T06:18:07;1.00;;;0.52;;
79438;SDS011;68889;48.232;10.110;2023-05-10T06:20:32;1.27;;;0.75;;
79438;SDS011;68889;48.232;10.110;2023-05-10T06:22:58;1.17;;;0.60;;
79438;SDS011;68889;48.232;10.110;2023-05-10T06:25:23;0.95;;;0.80;;
79438;SDS011;68889;48.232;10.110;2023-05-10T06:27:49;2.03;;;1.00;;
79438;SDS011;68889;48.232;10.110;2023-05-10T06:30:14;1.23;;;0.70;;
79438;SDS011;68889;48.232;10.110;2023-05-10T06:32:40;1.13;;;0.55;;
79438;SDS011;68889;48.232;10.110;2023-05-10T06:35:06;2.38;;;0.60;;
79438;SDS011;68889;48.232;10.110;2023-05-10T06:37:32;1.10;;;0.65;;
79438;SDS011;68889;48.232;10.110;2023-05-10T06:39:59;0.90;;;0.60;;
79438;SDS011;68889;48.232;10.110;2023-05-10T06:42:25;3.42;;;0.70;;
79438;SDS011;68889;48.232;10.110;2023-05-10T06:47:17;1.48;;;0.55;;
79438;SDS011;68889;48.232;10.110;2023-05-10T06:49:42;1.08;;;0.90;;
79438;SDS011;68889;48.232;10.110;2023-05-10T06:52:08;1.95;;;1.02;;
79438;SDS011;68889;48.232;10.110;2023-05-10T06:54:33;1.35;;;0.85;;
79438;SDS011;68889;48.232;10.110;2023-05-10T06:56:59;2.35;;;0.90;;
79438;SDS011;68889;48.232;10.110;2023-05-10T06:59:24;2.17;;;1.00;;
79438;SDS011;68889;48.232;10.110;2023-05-10T07:01:50;2.05;;;1.02;;
79438;SDS011;68889;48.232;10.110;2023-05-10T07:04:16;3.20;;;0.90;;
79438;SDS011;68889;48.232;10.110;2023-05-10T07:09:07;2.53;;;1.35;;
79438;SDS011;68889;48.232;10.110;2023-05-10T07:11:33;2.70;;;0.95;;
79438;SDS011;68889;48.232;10.110;2023-05-10T07:13:59;1.08;;;0.70;;
79438;SDS011;68889;48.232;10.110;2023-05-10T07:16:24;1.80;;;0.90;;
79438;SDS011;68889;48.232;10.110;2023-05-10T07:18:50;1.35;;;0.80;;
79438;SDS011;68889;48.232;10.110;2023-05-10T07:21:17;1.10;;;0.68;;
79438;SDS011;68889;48.232;10.110;2023-05-10T07:23:43;1.40;;;0.80;;
79438;SDS011;68889;48.232;10.110;2023-05-10T07:26:09;1.35;;;0.90;;
79438;SDS011;68889;48.232;10.110;2023-05-10T07:28:35;1.83;;;0.82;;
79438;SDS011;68889;48.232;10.110;2023-05-10T07:31:02;1.50;;;0.90;;
79438;SDS011;68889;48.232;10.110;2023-05-10T07:33:27;1.75;;;0.90;;
79438;SDS011;68889;48.232;10.110;2023-05-10T07:35:53;1.77;;;0.70;;
79438;SDS011;68889;48.232;10.110;2023-05-10T07:38:19;1.00;;;0.70;;
79438;SDS011;68889;48.232;10.110;2023-05-10T07:40:44;1.08;;;0.77;;
79438;SDS011;68889;48.232;10.110;2023-05-10T07:43:10;0.80;;;0.50;;
79438;SDS011;68889;48.232;10.110;2023-05-10T07:45:35;2.15;;;0.50;;
79438;SDS011;68889;48.232;10.110;2023-05-10T07:48:01;0.85;;;0.60;;
79438;SDS011;68889;48.232;10.110;2023-05-10T07:50:26;1.27;;;0.70;;
79438;SDS011;68889;48.232;10.110;2023-05-10T07:52:52;1.80;;;0.50;;
79438;SDS011;68889;48.232;10.110;2023-05-10T07:55:18;1.08;;;0.50;;
79438;SDS011;68889;48.232;10.110;2023-05-10T07:57:44;2.35;;;1.10;;
79438;SDS011;68889;48.232;10.110;2023-05-10T08:00:11;1.95;;;0.60;;
79438;SDS011;68889;48.232;10.110;2023-05-10T08:02:38;0.55;;;0.32;;
79438;SDS011;68889;48.232;10.110;2023-05-10T08:05:04;2.03;;;0.60;;
79438;SDS011;68889;48.232;10.110;2023-05-10T08:07:30;1.77;;;0.73;;
79438;SDS011;68889;48.232;10.110;2023-05-10T08:09:56;2.05;;;0.73;;
79438;SDS011;68889;48.232;10.110;2023-05-10T08:12:21;2.08;;;1.30;;
79438;SDS011;68889;48.232;10.110;2023-05-10T08:14:47;3.10;;;1.30;;
79438;SDS011;68889;48.232;10.110;2023-05-10T08:17:12;5.15;;;2.13;;
79438;SDS011;68889;48.232;10.110;2023-05-10T08:19:38;1.63;;;0.80;;
79438;SDS011;68889;48.232;10.110;2023-05-10T08:22:03;4.25;;;1.50;;
79438;SDS011;68889;48.232;10.110;2023-05-10T08:24:29;1.38;;;0.70;;
79438;SDS011;68889;48.232;10.110;2023-05-10T08:26:55;2.20;;;1.20;;
79438;SDS011;68889;48.232;10.110;2023-05-10T08:29:20;1.75;;;0.75;;
79438;SDS011;68889;48.232;10.110;2023-05-10T08:31:46;3.63;;;1.75;;
79438;SDS011;68889;48.232;10.110;2023-05-10T08:34:11;2.80;;;1.05;;
79438;SDS011;68889;48.232;10.110;2023-05-10T08:36:37;0.88;;;0.68;;
79438;SDS011;68889;48.232;10.110;2023-05-10T08:39:02;0.68;;;0.50;;
79438;SDS011;68889;48.232;10.110;2023-05-10T08:41:28;1.40;;;0.68;;
79438;SDS011;68889;48.232;10.110;2023-05-10T08:43:58;0.95;;;0.43;;
79438;SDS011;68889;48.232;10.110;2023-05-10T08:46:27;2.47;;;0.80;;
79438;SDS011;68889;48.232;10.110;2023-05-10T08:48:55;3.25;;;1.80;;
79438;SDS011;68889;48.232;10.110;2023-05-10T08:51:23;2.13;;;0.98;;
79438;SDS011;68889;48.232;10.110;2023-05-10T08:53:52;2.83;;;0.80;;
79438;SDS011;68889;48.232;10.110;2023-05-10T08:56:18;0.93;;;0.60;;
79438;SDS011;68889;48.232;10.110;2023-05-10T09:01:10;2.75;;;0.80;;
79438;SDS011;68889;48.232;10.110;2023-05-10T09:03:38;4.10;;;0.95;;
79438;SDS011;68889;48.232;10.110;2023-05-10T09:08:30;1.17;;;0.60;;
79438;SDS011;68889;48.232;10.110;2023-05-10T09:10:56;2.53;;;0.70;;
79438;SDS011;68889;48.232;10.110;2023-05-10T09:15:48;2.70;;;1.50;;
79438;SDS011;68889;48.232;10.110;2023-05-10T09:20:40;2.58;;;1.73;;
79438;SDS011;68889;48.232;10.110;2023-05-10T09:23:06;1.23;;;0.82;;
79438;SDS011;68889;48.232;10.110;2023-05-10T09:25:32;1.55;;;0.73;;
79438;SDS011;68889;48.232;10.110;2023-05-10T09:28:02;1.88;;;0.95;;
79438;SDS011;68889;48.232;10.110;2023-05-10T09:30:31;1.35;;;0.68;;
79438;SDS011;68889;48.232;10.110;2023-05-10T09:32:57;2.10;;;1.30;;
79438;SDS011;68889;48.232;10.110;2023-05-10T09:35:25;3.05;;;2.08;;
79438;SDS011;68889;48.232;10.110;2023-05-10T09:37:53;1.90;;;0.55;;
79438;SDS011;68889;48.232;10.110;2023-05-10T09:40:21;1.58;;;0.70;;
79438;SDS011;68889;48.232;10.110;2023-05-10T09:42:55;1.98;;;0.60;;
79438;SDS011;68889;48.232;10.110;2023-05-10T09:45:26;0.68;;;0.45;;
79438;SDS011;68889;48.232;10.110;2023-05-10T09:47:53;1.50;;;0.60;;
79438;SDS011;68889;48.232;10.110;2023-05-10T09:50:20;3.05;;;1.00;;
79438;SDS011;68889;48.232;10.110;2023-05-10T09:55:44;2.83;;;1.65;;
79438;SDS011;68889;48.232;10.110;2023-05-10T09:58:12;3.28;;;1.10;;
79438;SDS011;68889;48.232;10.110;2023-05-10T10:00:39;1.15;;;0.60;;
79438;SDS011;68889;48.232;10.110;2023-05-10T10:03:06;1.48;;;0.70;;
79438;SDS011;68889;48.232;10.110;2023-05-10T10:05:39;1.20;;;0.40;;
79438;SDS011;68889;48.232;10.110;2023-05-10T10:08:06;1.48;;;0.60;;
79438;SDS011;68889;48.232;10.110;2023-05-10T10:10:32;1.30;;;0.50;;
79438;SDS011;68889;48.232;10.110;2023-05-10T10:12:58;1.40;;;0.60;;
79438;SDS011;68889;48.232;10.110;2023-05-10T10:15:24;1.25;;;0.52;;
79438;SDS011;68889;48.232;10.110;2023-05-10T10:17:51;2.25;;;0.75;;
79438;SDS011;68889;48.232;10.110;2023-05-10T10:20:18;3.03;;;0.82;;
79438;SDS011;68889;48.232;10.110;2023-05-10T10:22:45;3.03;;;1.05;;
79438;SDS011;68889;48.232;10.110;2023-05-10T10:25:11;1.08;;;0.55;;
79438;SDS011;68889;48.232;10.110;2023-05-10T10:32:55;1.75;;;0.70;;
79438;SDS011;68889;48.232;10.110;2023-05-10T10:35:43;1.77;;;0.63;;
79438;SDS011;68889;48.232;10.110;2023-05-10T10:38:11;2.92;;;0.90;;
79438;SDS011;68889;48.232;10.110;2023-05-10T10:40:38;1.33;;;0.75;;
79438;SDS011;68889;48.232;10.110;2023-05-10T10:46:09;1.42;;;0.65;;
79438;SDS011;68889;48.232;10.110;2023-05-10T10:48:39;1.00;;;0.40;;
79438;SDS011;68889;48.232;10.110;2023-05-10T10:51:05;1.10;;;0.57;;
79438;SDS011;68889;48.232;10.110;2023-05-10T10:53:31;1.15;;;0.60;;
79438;SDS011;68889;48.232;10.110;2023-05-10T10:56:12;0.68;;;0.60;;
79438;SDS011;68889;48.232;10.110;2023-05-10T10:58:40;0.40;;;0.30;;
79438;SDS011;68889;48.232;10.110;2023-05-10T11:03:39;1.08;;;0.47;;
79438;SDS011;68889;48.232;10.110;2023-05-10T11:06:06;0.80;;;0.40;;
79438;SDS011;68889;48.232;10.110;2023-05-10T11:08:34;1.05;;;0.43;;
79438;SDS011;68889;48.232;10.110;2023-05-10T11:11:07;1.02;;;0.40;;
79438;SDS011;68889;48.232;10.110;2023-05-10T11:13:40;0.88;;;0.40;;
79438;SDS011;68889;48.232;10.110;2023-05-10T11:16:14;1.63;;;0.70;;
79438;SDS011;68889;48.232;10.110;2023-05-10T11:18:51;0.88;;;0.40;;
79438;SDS011;68889;48.232;10.110;2023-05-10T11:21:18;0.85;;;0.40;;
79438;SDS011;68889;48.232;10.110;2023-05-10T11:23:57;0.75;;;0.40;;
79438;SDS011;68889;48.232;10.110;2023-05-10T11:26:25;0.73;;;0.40;;
79438;SDS011;68889;48.232;10.110;2023-05-10T11:28:55;2.13;;;0.40;;
79438;SDS011;68889;48.232;10.110;2023-05-10T11:31:21;1.02;;;0.40;;
79438;SDS011;68889;48.232;10.110;2023-05-10T11:33:48;0.60;;;0.40;;
79438;SDS011;68889;48.232;10.110;2023-05-10T11:36:16;1.27;;;0.70;;
79438;SDS011;68889;48.232;10.110;2023-05-10T11:38:43;1.55;;;0.70;;
79438;SDS011;68889;48.232;10.110;2023-05-10T11:41:09;1.65;;;0.75;;
79438;SDS011;68889;48.232;10.110;2023-05-10T11:43:36;1.98;;;0.60;;
79438;SDS011;68889;48.232;10.110;2023-05-10T11:46:03;1.40;;;0.73;;
79438;SDS011;68889;48.232;10.110;2023-05-10T11:48:30;1.48;;;0.50;;
79438;SDS011;68889;48.232;10.110;2023-05-10T11:50:56;1.80;;;0.60;;
79438;SDS011;68889;48.232;10.110;2023-05-10T11:53:22;1.83;;;0.60;;
79438;SDS011;68889;48.232;10.110;2023-05-10T11:55:50;1.85;;;0.80;;
79438;SDS011;68889;48.232;10.110;2023-05-10T11:58:16;0.93;;;0.55;;
79438;SDS011;68889;48.232;10.110;2023-05-10T12:00:43;1.33;;;0.68;;
79438;SDS011;68889;48.232;10.110;2023-05-10T12:03:10;1.63;;;0.50;;
79438;SDS011;68889;48.232;10.110;2023-05-10T12:05:36;1.45;;;0.68;;
79438;SDS011;68889;48.232;10.110;2023-05-10T12:08:12;1.00;;;0.50;;
79438;SDS011;68889;48.232;10.110;2023-05-10T12:10:38;0.93;;;0.50;;
79438;SDS011;68889;48.232;10.110;2023-05-10T12:13:03;1.00;;;0.50;;
79438;SDS011;68889;48.232;10.110;2023-05-10T12:15:29;2.17;;;0.60;;
79438;SDS011;68889;48.232;10.110;2023-05-10T12:17:54;1.38;;;0.68;;
79438;SDS011;68889;48.232;10.110;2023-05-10T12:20:24;0.47;;;0.40;;
79438;SDS011;68889;48.232;10.110;2023-05-10T12:22:53;0.77;;;0.40;;
79438;SDS011;68889;48.232;10.110;2023-05-10T12:25:22;0.77;;;0.50;;
79438;SDS011;68889;48.232;10.110;2023-05-10T12:27:55;1.58;;;0.73;;
79438;SDS011;68889;48.232;10.110;2023-05-10T12:30:22;1.73;;;0.82;;
79438;SDS011;68889;48.232;10.110;2023-05-10T12:32:50;1.30;;;0.90;;
79438;SDS011;68889;48.232;10.110;2023-05-10T12:35:16;1.20;;;0.70;;
79438;SDS011;68889;48.232;10.110;2023-05-10T12:37:42;1.48;;;0.70;;
79438;SDS011;68889;48.232;10.110;2023-05-10T12:40:09;2.08;;;0.93;;
79438;SDS011;68889;48.232;10.110;2023-05-10T12:42:38;1.67;;;0.77;;
79438;SDS011;68889;48.232;10.110;2023-05-10T12:45:05;2.00;;;0.85;;
79438;SDS011;68889;48.232;10.110;2023-05-10T12:47:31;1.75;;;1.10;;
79438;SDS011;68889;48.232;10.110;2023-05-10T12:50:00;2.17;;;1.00;;
79438;SDS011;68889;48.232;10.110;2023-05-10T12:52:27;1.10;;;0.70;;
79438;SDS011;68889;48.232;10.110;2023-05-10T12:54:53;1.30;;;0.95;;
79438;SDS011;68889;48.232;10.110;2023-05-10T12:57:21;1.70;;;1.00;;
79438;SDS011;68889;48.232;10.110;2023-05-10T12:59:47;2.45;;;1.30;;
79438;SDS011;68889;48.232;10.110;2023-05-10T13:02:12;1.33;;;0.93;;
79438;SDS011;68889;48.232;10.110;2023-05-10T13:04:39;1.50;;;0.90;;
79438;SDS011;68889;48.232;10.110;2023-05-10T13:07:08;1.83;;;0.68;;
79438;SDS011;68889;48.232;10.110;2023-05-10T13:09:34;1.27;;;0.70;;
79438;SDS011;68889;48.232;10.110;2023-05-10T13:12:00;1.77;;;0.70;;
79438;SDS011;68889;48.232;10.110;2023-05-10T13:14:26;1.33;;;0.77;;
79438;SDS011;68889;48.232;10.110;2023-05-10T13:16:51;1.45;;;0.80;;
79438;SDS011;68889;48.232;10.110;2023-05-10T13:19:17;1.88;;;0.88;;
79438;SDS011;68889;48.232;10.110;2023-05-10T13:21:43;1.08;;;0.63;;
79438;SDS011;68889;48.232;10.110;2023-05-10T13:24:11;1.45;;;0.68;;
79438;SDS011;68889;48.232;10.110;2023-05-10T13:26:41;2.00;;;0.70;;
79438;SDS011;68889;48.232;10.110;2023-05-10T13:29:07;1.52;;;0.70;;
79438;SDS011;68889;48.232;10.110;2023-05-10T13:31:33;2.08;;;0.80;;
79438;SDS011;68889;48.232;10.110;2023-05-10T13:36:25;0.73;;;0.60;;
79438;SDS011;68889;48.232;10.110;2023-05-10T13:38:50;1.17;;;0.68;;
79438;SDS011;68889;48.232;10.110;2023-05-10T13:41:16;1.40;;;0.60;;
79438;SDS011;68889;48.232;10.110;2023-05-10T13:43:41;1.17;;;0.70;;
79438;SDS011;68889;48.232;10.110;2023-05-10T13:46:07;2.05;;;0.93;;
79438;SDS011;68889;48.232;10.110;2023-05-10T13:48:32;1.02;;;0.60;;
79438;SDS011;68889;48.232;10.110;2023-05-10T13:50:58;1.17;;;0.70;;
79438;SDS011;68889;48.232;10.110;2023-05-10T13:53:23;1.50;;;0.80;;
79438;SDS011;68889;48.232;10.110;2023-05-10T13:55:49;1.35;;;0.77;;
79438;SDS011;68889;48.232;10.110;2023-05-10T13:58:14;3.25;;;0.82;;
79438;SDS011;68889;48.232;10.110;2023-05-10T14:00:40;1.80;;;0.68;;
79438;SDS011;68889;48.232;10.110;2023-05-10T14:03:05;1.27;;;0.70;;
79438;SDS011;68889;48.232;10.110;2023-05-10T14:05:33;3.67;;;1.85;;
79438;SDS011;68889;48.232;10.110;2023-05-10T14:07:59;14.98;;;1.83;;
79438;SDS011;68889;48.232;10.110;2023-05-10T14:10:24;2.50;;;1.00;;
79438;SDS011;68889;48.232;10.110;2023-05-10T14:12:50;2.72;;;0.88;;
79438;SDS011;68889;48.232;10.110;2023-05-10T14:15:15;2.40;;;1.00;;
79438;SDS011;68889;48.232;10.110;2023-05-10T14:17:41;2.88;;;0.98;;
79438;SDS011;68889;48.232;10.110;2023-05-10T14:20:07;3.53;;;1.15;;
79438;SDS011;68889;48.232;10.110;2023-05-10T14:24:59;1.67;;;0.95;;
79438;SDS011;68889;48.232;10.110;2023-05-10T14:27:25;3.30;;;1.08;;
79438;SDS011;68889;48.232;10.110;2023-05-10T14:29:50;3.42;;;1.80;;
79438;SDS011;68889;48.232;10.110;2023-05-10T14:32:16;5.05;;;2.83;;
79438;SDS011;68889;48.232;10.110;2023-05-10T14:34:41;3.80;;;1.52;;
79438;SDS011;68889;48.232;10.110;2023-05-10T14:37:09;2.15;;;1.35;;
79438;SDS011;68889;48.232;10.110;2023-05-10T14:39:36;2.60;;;1.10;;
79438;SDS011;68889;48.232;10.110;2023-05-10T14:42:01;2.42;;;1.30;;
79438;SDS011;68889;48.232;10.110;2023-05-10T14:44:27;3.05;;;1.05;;
79438;SDS011;68889;48.232;10.110;2023-05-10T14:46:53;2.65;;;1.05;;
79438;SDS011;68889;48.232;10.110;2023-05-10T14:49:18;2.40;;;1.10;;
79438;SDS011;68889;48.232;10.110;2023-05-10T14:51:44;1.63;;;0.90;;
79438;SDS011;68889;48.232;10.110;2023-05-10T14:54:10;1.70;;;1.02;;
79438;SDS011;68889;48.232;10.110;2023-05-10T14:56:36;1.40;;;0.90;;
79438;SDS011;68889;48.232;10.110;2023-05-10T14:59:02;1.40;;;0.70;;
79438;SDS011;68889;48.232;10.110;2023-05-10T15:01:28;1.48;;;0.77;;
79438;SDS011;68889;48.232;10.110;2023-05-10T15:03:54;1.90;;;0.80;;
79438;SDS011;68889;48.232;10.110;2023-05-10T15:06:23;1.90;;;0.80;;
79438;SDS011;68889;48.232;10.110;2023-05-10T15:08:55;2.75;;;0.90;;
79438;SDS011;68889;48.232;10.110;2023-05-10T15:11:20;1.73;;;0.90;;
79438;SDS011;68889;48.232;10.110;2023-05-10T15:13:46;1.98;;;0.80;;
79438;SDS011;68889;48.232;10.110;2023-05-10T15:16:11;2.33;;;1.05;;
79438;SDS011;68889;48.232;10.110;2023-05-10T15:18:37;1.80;;;1.42;;
79438;SDS011;68889;48.232;10.110;2023-05-10T15:21:02;1.58;;;1.10;;
79438;SDS011;68889;48.232;10.110;2023-05-10T15:23:28;2.05;;;1.05;;